createdAt,value
2022-09-11T00:01:41.401Z,15.23
2022-09-11T00:04:11.267Z,13.63
2022-09-11T00:06:39.932Z,11.93
2022-09-11T00:09:08.772Z,13.37
2022-09-11T00:11:40.799Z,12.97
2022-09-11T00:14:10.308Z,14.50
2022-09-11T00:16:43.080Z,12.03
2022-09-11T00:19:14.155Z,12.00
2022-09-11T00:21:42.890Z,15.07
2022-09-11T00:24:11.423Z,9.77
2022-09-11T00:26:42.549Z,11.40
2022-09-11T00:29:12.077Z,13.27
2022-09-11T00:31:41.772Z,12.77
2022-09-11T00:34:10.314Z,12.83
2022-09-11T00:36:41.433Z,14.00
2022-09-11T00:39:11.793Z,12.63
2022-09-11T00:41:42.548Z,13.83
2022-09-11T00:44:45.476Z,12.37
2022-09-11T00:47:18.710Z,14.53
2022-09-11T00:49:51.181Z,16.80
2022-09-11T00:52:24.410Z,15.90
2022-09-11T00:54:58.173Z,15.90
2022-09-11T00:57:29.431Z,15.90
2022-09-11T01:00:00.651Z,16.47
2022-09-11T01:02:32.762Z,18.33
2022-09-11T01:05:01.532Z,17.93
2022-09-11T01:07:31.640Z,16.87
2022-09-11T01:10:00.373Z,17.97
2022-09-11T01:12:36.505Z,16.83
2022-09-11T01:15:08.795Z,17.17
2022-09-11T01:17:47.762Z,16.80
2022-09-11T01:20:36.901Z,16.53
2022-09-11T01:23:35.110Z,17.97
2022-09-11T01:26:32.787Z,18.97
2022-09-11T01:29:08.888Z,19.83
2022-09-11T01:31:45.953Z,18.67
2022-09-11T01:34:23.932Z,19.93
2022-09-11T01:36:55.955Z,20.87
2022-09-11T01:39:30.240Z,17.73
2022-09-11T01:42:03.443Z,17.90
2022-09-11T01:44:37.313Z,20.10
2022-09-11T01:47:11.742Z,18.87
2022-09-11T01:49:44.082Z,17.80
2022-09-11T01:52:18.979Z,21.20
2022-09-11T01:54:52.003Z,19.93
2022-09-11T01:57:25.782Z,20.23
2022-09-11T02:00:01.123Z,21.47
2022-09-11T02:02:35.742Z,21.37
2022-09-11T02:05:09.416Z,18.23
2022-09-11T02:07:42.341Z,20.87
2022-09-11T02:10:14.598Z,20.60
2022-09-11T02:12:48.843Z,19.43
2022-09-11T02:15:19.798Z,21.33
2022-09-11T02:17:54.132Z,18.40
2022-09-11T02:20:28.720Z,18.83
2022-09-11T02:22:57.138Z,19.90
2022-09-11T02:25:25.785Z,21.33
2022-09-11T02:27:58.969Z,18.03
2022-09-11T02:30:28.631Z,20.03
2022-09-11T02:32:57.203Z,18.43
2022-09-11T02:35:32.755Z,18.63
2022-09-11T02:38:13.171Z,19.60
2022-09-11T02:40:53.179Z,19.27
2022-09-11T02:43:39.499Z,19.43
2022-09-11T02:46:31.015Z,20.33
2022-09-11T02:49:08.251Z,19.93
2022-09-11T02:51:43.423Z,19.40
2022-09-11T02:54:21.879Z,19.87
2022-09-11T02:56:56.849Z,20.33
2022-09-11T02:59:29.024Z,21.53
2022-09-11T03:02:01.860Z,20.87
2022-09-11T03:04:31.475Z,20.83
2022-09-11T03:07:00.467Z,19.70
2022-09-11T03:09:28.815Z,19.90
2022-09-11T03:12:02.327Z,20.13
2022-09-11T03:14:35.947Z,19.93
2022-09-11T03:17:07.343Z,21.07
2022-09-11T03:19:37.463Z,19.50
2022-09-11T03:22:06.011Z,20.07
2022-09-11T03:24:35.213Z,19.63
2022-09-11T03:27:04.718Z,23.10
2022-09-11T03:29:33.693Z,20.67
2022-09-11T03:32:02.810Z,21.80
2022-09-11T03:34:33.469Z,18.93
2022-09-11T03:37:02.449Z,19.70
2022-09-11T03:39:30.806Z,18.10
2022-09-11T03:42:01.147Z,18.07
2022-09-11T03:44:29.833Z,18.43
2022-09-11T03:46:58.214Z,21.13
2022-09-11T03:49:26.625Z,20.90
2022-09-11T03:51:57.083Z,21.30
2022-09-11T03:54:25.454Z,19.73
2022-09-11T03:56:53.860Z,17.20
2022-09-11T03:59:22.137Z,17.17
2022-09-11T04:01:52.997Z,20.37
2022-09-11T04:04:21.844Z,20.80
2022-09-11T04:06:50.169Z,18.50
2022-09-11T04:09:20.003Z,19.63
2022-09-11T04:11:51.703Z,18.87
2022-09-11T04:14:24.849Z,22.40
2022-09-11T04:16:55.314Z,19.60
2022-09-11T04:19:23.821Z,18.33
2022-09-11T04:21:53.642Z,21.40
2022-09-11T04:24:24.230Z,19.37
2022-09-11T04:26:55.260Z,19.83
2022-09-11T04:29:28.728Z,20.70
2022-09-11T04:31:58.020Z,21.00
2022-09-11T04:34:30.587Z,21.83
2022-09-11T04:36:59.598Z,19.87
2022-09-11T04:39:32.491Z,20.77
2022-09-11T04:42:02.091Z,21.33
2022-09-11T04:44:32.852Z,20.27
2022-09-11T04:47:01.779Z,22.37
2022-09-11T04:49:30.211Z,22.37
2022-09-11T04:52:02.831Z,21.93
2022-09-11T04:54:34.354Z,25.53
2022-09-11T04:57:03.240Z,20.93
2022-09-11T04:59:31.758Z,24.07
2022-09-11T05:02:07.396Z,23.17
2022-09-11T05:04:39.894Z,23.03
2022-09-11T05:07:08.774Z,23.10
2022-09-11T05:09:38.733Z,28.27
2022-09-11T05:12:07.349Z,21.87
2022-09-11T05:14:37.971Z,23.20
2022-09-11T05:17:07.573Z,24.90
2022-09-11T05:19:40.331Z,22.83
2022-09-11T05:22:09.419Z,22.80
2022-09-11T05:24:43.888Z,25.90
2022-09-11T05:27:12.303Z,27.70
2022-09-11T05:29:41.958Z,22.20
2022-09-11T05:32:13.238Z,21.07
2022-09-11T05:34:42.772Z,26.60
2022-09-11T05:37:14.577Z,23.93
2022-09-11T05:39:47.818Z,22.37
2022-09-11T05:42:17.771Z,23.77
2022-09-11T05:44:51.435Z,24.37
2022-09-11T05:47:19.976Z,20.70
2022-09-11T05:49:51.842Z,23.37
2022-09-11T05:52:20.298Z,20.73
2022-09-11T05:54:50.104Z,20.27
2022-09-11T05:57:19.928Z,18.50
2022-09-11T05:59:48.473Z,18.43
2022-09-11T06:02:16.802Z,21.17
2022-09-11T06:04:50.818Z,19.87
2022-09-11T06:07:21.028Z,19.27
2022-09-11T06:09:52.746Z,23.60
2022-09-11T06:12:21.903Z,22.03
2022-09-11T06:14:51.516Z,20.00
2022-09-11T06:17:19.840Z,20.57
2022-09-11T06:19:48.389Z,23.00
2022-09-11T06:22:18.425Z,24.10
2022-09-11T06:24:48.114Z,20.67
2022-09-11T06:27:19.320Z,20.53
2022-09-11T06:29:50.461Z,20.47
2022-09-11T06:32:21.352Z,25.53
2022-09-11T06:34:49.736Z,23.70
2022-09-11T06:37:18.176Z,25.40
2022-09-11T06:39:46.540Z,26.20
2022-09-11T06:42:23.558Z,27.17
2022-09-11T06:44:52.520Z,25.83
2022-09-11T06:47:22.028Z,25.70
2022-09-11T06:49:50.446Z,31.73
2022-09-11T06:52:21.461Z,27.77
2022-09-11T06:55:03.059Z,26.07
2022-09-11T06:57:33.338Z,28.73
2022-09-11T07:00:01.675Z,26.00
2022-09-11T07:02:35.116Z,25.93
2022-09-11T07:05:03.461Z,30.00
2022-09-11T07:07:32.471Z,28.23
2022-09-11T07:10:04.312Z,25.53
2022-09-11T07:12:35.668Z,25.77
2022-09-11T07:15:04.378Z,22.13
2022-09-11T07:17:33.901Z,29.67
2022-09-11T07:20:03.348Z,27.20
2022-09-11T07:22:32.238Z,29.07
2022-09-11T07:25:02.801Z,28.67
2022-09-11T07:27:36.266Z,29.50
2022-09-11T07:30:05.005Z,29.07
2022-09-11T07:32:38.262Z,28.77
2022-09-11T07:35:07.896Z,26.67
2022-09-11T07:37:36.599Z,25.27
2022-09-11T07:40:05.246Z,27.43
2022-09-11T07:42:34.067Z,26.27
2022-09-11T07:45:03.991Z,27.67
2022-09-11T07:47:34.932Z,26.02
2022-09-11T07:50:04.001Z,33.63
2022-09-11T07:52:33.681Z,29.77
2022-09-11T07:55:04.774Z,24.13
2022-09-11T07:57:35.839Z,24.73
2022-09-11T08:00:12.277Z,22.95
2022-09-11T08:02:49.321Z,22.63
2022-09-11T08:05:26.547Z,25.38
2022-09-11T08:07:58.861Z,25.25
2022-09-11T08:10:28.835Z,25.80
2022-09-11T08:13:00.220Z,25.67
2022-09-11T08:15:35.734Z,25.42
2022-09-11T08:18:06.725Z,25.23
2022-09-11T08:20:35.695Z,26.50
2022-09-11T08:23:04.166Z,27.73
2022-09-11T08:25:32.484Z,28.38
2022-09-11T08:28:01.615Z,28.90
2022-09-11T08:30:30.837Z,29.15
2022-09-11T08:33:01.603Z,29.00
2022-09-11T08:35:30.342Z,26.73
2022-09-11T08:37:59.247Z,27.83
2022-09-11T08:40:29.463Z,30.48
2022-09-11T08:43:03.450Z,34.90
2022-09-11T08:45:36.100Z,31.30
2022-09-11T08:48:09.333Z,29.02
2022-09-11T08:50:42.208Z,29.17
2022-09-11T08:53:16.504Z,32.95
2022-09-11T08:55:48.992Z,27.25
2022-09-11T08:58:27.763Z,31.25
2022-09-11T09:01:07.923Z,27.83
2022-09-11T09:03:56.451Z,29.48
2022-09-11T09:06:40.240Z,31.95
2022-09-11T09:09:16.860Z,30.45
2022-09-11T09:11:56.825Z,33.13
2022-09-11T09:15:03.877Z,23.73
2022-09-11T09:17:39.946Z,23.88
2022-09-11T09:20:14.726Z,19.35
2022-09-11T09:22:48.561Z,20.58
2022-09-11T09:25:21.136Z,24.23
2022-09-11T09:27:52.111Z,22.52
2022-09-11T09:30:23.690Z,20.35
2022-09-11T09:32:57.549Z,18.85
2022-09-11T09:35:33.426Z,18.42
2022-09-11T09:38:03.226Z,16.90
2022-09-11T09:40:34.801Z,11.10
2022-09-11T09:43:15.869Z,16.17
2022-09-11T09:45:54.027Z,13.80
2022-09-11T09:48:23.204Z,9.27
2022-09-11T09:50:52.982Z,14.85
2022-09-11T09:53:30.864Z,15.18
2022-09-11T09:56:00.946Z,14.63
2022-09-11T09:58:43.916Z,15.43
2022-09-11T10:01:44.884Z,11.90
2022-09-11T10:04:17.735Z,15.25
2022-09-11T10:06:49.298Z,14.32
2022-09-11T10:09:29.715Z,12.80
2022-09-11T10:12:03.012Z,9.43
2022-09-11T10:14:50.911Z,9.00
2022-09-11T10:17:25.251Z,10.07
2022-09-11T10:19:57.221Z,10.20
2022-09-11T10:22:30.984Z,9.00
2022-09-11T10:25:05.353Z,8.73
2022-09-11T10:27:40.053Z,5.47
2022-09-11T10:30:26.516Z,7.30
2022-09-11T10:32:55.291Z,5.63
2022-09-11T10:35:28.054Z,4.75
2022-09-11T10:38:19.213Z,8.65
2022-09-11T10:41:03.274Z,8.02
2022-09-11T10:43:39.549Z,7.72
2022-09-11T10:46:24.609Z,7.95
2022-09-11T10:48:55.295Z,7.07
2022-09-11T10:51:24.878Z,6.70
2022-09-11T10:54:15.451Z,7.53
2022-09-11T10:56:57.997Z,7.38
2022-09-11T10:59:34.899Z,4.82
2022-09-11T11:02:03.703Z,5.40
2022-09-11T11:04:34.043Z,6.82
2022-09-11T11:07:17.245Z,5.35
2022-09-11T11:09:58.002Z,6.65
2022-09-11T11:12:40.390Z,6.68
2022-09-11T11:15:29.504Z,5.07
2022-09-11T11:18:21.243Z,5.20
2022-09-11T11:20:59.288Z,5.82
2022-09-11T11:23:41.171Z,5.20
2022-09-11T11:26:27.660Z,7.35
2022-09-11T11:29:15.371Z,8.40
2022-09-11T11:31:55.718Z,8.48
2022-09-11T11:34:37.152Z,11.05
2022-09-11T11:37:12.810Z,7.90
2022-09-11T11:39:51.434Z,5.00
2022-09-11T11:42:27.365Z,8.38
2022-09-11T11:45:00.570Z,7.75
2022-09-11T11:47:33.695Z,6.25
2022-09-11T11:50:09.646Z,5.82
2022-09-11T11:52:47.114Z,6.10
2022-09-11T11:55:20.749Z,6.80
2022-09-11T11:57:59.499Z,6.57
2022-09-11T12:00:31.830Z,8.07
2022-09-11T12:03:07.667Z,4.40
2022-09-11T12:05:37.704Z,4.90
2022-09-11T12:08:11.923Z,6.00
2022-09-11T12:10:44.058Z,5.63
2022-09-11T12:13:16.480Z,4.90
2022-09-11T12:16:03.928Z,4.47
2022-09-11T12:18:34.237Z,5.40
2022-09-11T12:21:37.721Z,7.05
2022-09-11T12:24:21.018Z,6.07
2022-09-11T12:27:11.753Z,9.65
2022-09-11T12:29:56.451Z,6.00
2022-09-11T12:32:44.263Z,5.15
2022-09-11T12:35:32.982Z,5.47
2022-09-11T12:38:05.633Z,6.28
2022-09-11T12:40:39.078Z,4.65
2022-09-11T12:43:29.667Z,3.92
2022-09-11T12:45:59.709Z,7.00
2022-09-11T12:48:38.886Z,6.10
2022-09-11T12:51:19.415Z,4.93
2022-09-11T12:53:51.432Z,5.63
2022-09-11T12:56:22.681Z,5.75
2022-09-11T12:58:56.234Z,6.15
2022-09-11T13:01:31.006Z,6.43
2022-09-11T13:04:03.417Z,5.40
2022-09-11T13:06:42.127Z,5.78
2022-09-11T13:09:22.046Z,6.53
2022-09-11T13:11:51.970Z,6.57
2022-09-11T13:14:50.367Z,5.50
2022-09-11T13:17:28.625Z,5.22
2022-09-11T13:20:15.044Z,5.55
2022-09-11T13:22:43.306Z,6.15
2022-09-11T13:25:15.672Z,7.82
2022-09-11T13:27:46.742Z,7.07
2022-09-11T13:30:16.828Z,7.63
2022-09-11T13:32:49.788Z,9.63
2022-09-11T13:35:27.107Z,5.75
2022-09-11T13:38:02.543Z,8.07
2022-09-11T13:40:35.907Z,7.40
2022-09-11T13:43:05.131Z,7.47
2022-09-11T13:45:33.632Z,8.13
2022-09-11T13:48:13.180Z,7.55
2022-09-11T13:50:41.797Z,7.78
2022-09-11T13:53:10.681Z,7.70
2022-09-11T13:55:38.944Z,6.32
2022-09-11T13:58:24.261Z,6.22
2022-09-11T14:00:54.984Z,7.90
2022-09-11T14:03:28.922Z,8.98
2022-09-11T14:05:58.888Z,6.57
2022-09-11T14:08:32.737Z,7.18
2022-09-11T14:11:07.114Z,7.93
2022-09-11T14:13:44.486Z,8.85
2022-09-11T14:16:22.924Z,8.32
2022-09-11T14:18:55.642Z,7.00
2022-09-11T14:21:26.634Z,7.85
2022-09-11T14:23:56.956Z,5.68
2022-09-11T14:26:40.161Z,7.03
2022-09-11T14:29:24.182Z,7.32
2022-09-11T14:31:53.043Z,7.22
2022-09-11T14:34:25.970Z,4.88
2022-09-11T14:36:57.520Z,5.80
2022-09-11T14:39:32.975Z,5.47
2022-09-11T14:42:02.782Z,4.32
2022-09-11T14:44:32.994Z,4.80
2022-09-11T14:47:01.430Z,4.88
2022-09-11T14:49:31.153Z,4.75
2022-09-11T14:52:01.361Z,4.78
2022-09-11T14:54:31.837Z,4.50
2022-09-11T14:57:00.288Z,5.78
2022-09-11T14:59:29.566Z,6.18
2022-09-11T15:01:59.030Z,5.97
2022-09-11T15:04:30.005Z,4.85
2022-09-11T15:07:00.023Z,6.07
2022-09-11T15:09:29.202Z,5.18
2022-09-11T15:11:57.419Z,4.53
2022-09-11T15:14:52.044Z,5.05
2022-09-11T15:17:17.933Z,4.82
2022-09-11T15:19:47.796Z,5.80
2022-09-11T15:22:17.969Z,5.15
2022-09-11T15:24:48.852Z,4.00
2022-09-11T15:27:17.261Z,4.45
2022-09-11T15:29:45.856Z,3.33
2022-09-11T15:32:14.571Z,5.05
2022-09-11T15:34:43.946Z,5.25
2022-09-11T15:37:12.338Z,3.70
2022-09-11T15:39:42.029Z,4.05
2022-09-11T15:42:10.520Z,3.13
2022-09-11T15:44:39.051Z,4.13
2022-09-11T15:47:07.930Z,3.58
2022-09-11T15:49:40.719Z,3.90
2022-09-11T15:52:09.245Z,4.63
2022-09-11T15:54:37.575Z,4.30
2022-09-11T15:57:07.475Z,4.07
2022-09-11T15:59:35.869Z,3.75
2022-09-11T16:02:04.292Z,3.15
2022-09-11T16:04:33.701Z,4.38
2022-09-11T16:07:02.161Z,3.70
2022-09-11T16:09:32.049Z,3.30
2022-09-11T16:12:01.724Z,3.83
2022-09-11T16:14:33.710Z,4.57
2022-09-11T16:17:03.471Z,4.07
2022-09-11T16:19:32.764Z,3.63
2022-09-11T16:22:03.504Z,2.63
2022-09-11T16:24:36.188Z,3.85
2022-09-11T16:27:06.406Z,3.05
2022-09-11T16:30:08.916Z,3.88
2022-09-11T16:32:31.938Z,3.17
2022-09-11T16:35:00.441Z,2.88
2022-09-11T16:37:34.233Z,3.03
2022-09-11T16:40:04.505Z,4.65
2022-09-11T16:42:33.206Z,4.00
2022-09-11T16:45:03.004Z,4.97
2022-09-11T16:47:32.080Z,4.22
2022-09-11T16:50:06.931Z,4.13
2022-09-11T16:52:36.541Z,2.55
2022-09-11T16:55:06.575Z,4.50
2022-09-11T16:57:35.806Z,2.70
2022-09-11T17:00:07.359Z,3.30
2022-09-11T17:02:35.803Z,3.05
2022-09-11T17:05:04.982Z,4.03
2022-09-11T17:07:33.387Z,3.42
2022-09-11T17:10:01.767Z,3.35
2022-09-11T17:12:29.997Z,2.53
2022-09-11T17:14:58.398Z,3.30
2022-09-11T17:17:28.059Z,3.63
2022-09-11T17:19:56.880Z,3.00
2022-09-11T17:22:25.112Z,4.28
2022-09-11T17:24:53.719Z,3.15
2022-09-11T17:27:22.345Z,3.75
2022-09-11T17:29:51.085Z,4.68
2022-09-11T17:32:29.035Z,4.25
2022-09-11T17:35:01.827Z,3.17
2022-09-11T17:37:30.107Z,3.22
2022-09-11T17:39:58.951Z,3.75
2022-09-11T17:42:30.473Z,2.97
2022-09-11T17:44:59.157Z,3.97
2022-09-11T17:47:31.053Z,2.60
2022-09-11T17:50:01.503Z,4.07
2022-09-11T17:52:32.161Z,5.05
2022-09-11T17:55:00.452Z,3.03
2022-09-11T17:57:28.757Z,3.80
2022-09-11T17:59:57.829Z,4.65
2022-09-11T18:02:27.184Z,3.42
2022-09-11T18:04:55.442Z,3.88
2022-09-11T18:07:25.076Z,3.42
2022-09-11T18:09:56.367Z,3.95
2022-09-11T18:12:26.671Z,2.70
2022-09-11T18:14:57.002Z,5.53
2022-09-11T18:17:25.403Z,3.97
2022-09-11T18:19:53.794Z,3.53
2022-09-11T18:22:23.260Z,3.05
2022-09-11T18:24:52.929Z,2.88
2022-09-11T18:27:21.403Z,3.20
2022-09-11T18:29:51.435Z,3.42
2022-09-11T18:32:20.114Z,4.60
2022-09-11T18:34:49.786Z,4.40
2022-09-11T18:37:18.332Z,3.15
2022-09-11T18:39:48.358Z,5.30
2022-09-11T18:42:18.370Z,8.75
2022-09-11T18:44:46.743Z,6.03
2022-09-11T18:47:15.242Z,4.50
2022-09-11T18:49:43.969Z,5.63
2022-09-11T18:52:14.668Z,4.93
2022-09-11T18:54:43.281Z,4.03
2022-09-11T18:57:11.600Z,4.60
2022-09-11T18:59:41.604Z,5.40
2022-09-11T19:02:10.935Z,5.40
2022-09-11T19:04:39.486Z,4.18
2022-09-11T19:07:07.954Z,6.75
2022-09-11T19:09:36.332Z,7.22
2022-09-11T19:12:05.479Z,4.22
2022-09-11T19:14:35.992Z,7.03
2022-09-11T19:17:05.668Z,5.05
2022-09-11T19:19:34.026Z,4.50
2022-09-11T19:22:02.380Z,7.10
2022-09-11T19:24:31.038Z,7.07
2022-09-11T19:27:00.228Z,4.07
2022-09-11T19:29:28.574Z,4.85
2022-09-11T19:31:56.844Z,4.22
2022-09-11T19:34:26.529Z,4.13
2022-09-11T19:36:54.845Z,5.55
2022-09-11T19:39:23.301Z,5.93
2022-09-11T19:41:51.961Z,4.63
2022-09-11T19:44:21.176Z,5.00
2022-09-11T19:46:53.478Z,5.97
2022-09-11T19:49:21.855Z,6.03
2022-09-11T19:51:53.159Z,4.25
2022-09-11T19:54:22.537Z,6.53
2022-09-11T19:56:51.116Z,5.68
2022-09-11T19:59:19.603Z,7.50
2022-09-11T20:01:48.173Z,6.32
2022-09-11T20:04:17.682Z,7.35
2022-09-11T20:09:31.901Z,5.32
2022-09-11T20:12:01.615Z,5.20
2022-09-11T20:14:31.178Z,6.65
2022-09-11T20:17:01.205Z,8.75
2022-09-11T20:19:29.710Z,6.25
2022-09-11T20:21:58.137Z,6.07
2022-09-11T20:24:27.964Z,5.70
2022-09-11T20:26:56.191Z,6.80
2022-09-11T20:29:24.645Z,6.38
2022-09-11T20:31:54.246Z,8.70
2022-09-11T20:34:28.008Z,7.78
2022-09-11T20:37:00.783Z,6.72
2022-09-11T20:39:30.940Z,7.63
2022-09-11T20:42:00.568Z,7.18
2022-09-11T20:44:29.847Z,8.52
2022-09-11T20:47:00.653Z,5.85
2022-09-11T20:49:30.702Z,7.40
2022-09-11T20:52:00.548Z,7.88
2022-09-11T20:54:30.390Z,7.90
2022-09-11T20:57:00.478Z,7.25
2022-09-11T20:59:29.174Z,7.97
2022-09-11T21:01:58.385Z,7.45
2022-09-11T21:04:28.711Z,7.72
2022-09-11T21:06:57.050Z,8.23
2022-09-11T21:09:25.459Z,8.90
2022-09-11T21:11:55.171Z,8.30
2022-09-11T21:14:23.633Z,10.00
2022-09-11T21:16:53.458Z,8.55
2022-09-11T21:19:21.745Z,7.75
2022-09-11T21:21:50.116Z,7.60
2022-09-11T21:24:18.385Z,8.48
2022-09-11T21:26:46.878Z,9.68
2022-09-11T21:29:16.523Z,9.30
2022-09-11T21:31:44.895Z,10.05
2022-09-11T21:34:13.174Z,7.93
2022-09-11T21:36:42.512Z,9.52
2022-09-11T21:39:13.214Z,8.05
2022-09-11T21:41:41.609Z,10.05
2022-09-11T21:44:10.073Z,8.77
2022-09-11T21:46:39.745Z,7.65
2022-09-11T21:49:08.129Z,7.00
2022-09-11T21:51:36.614Z,7.03
2022-09-11T21:54:05.289Z,9.13
2022-09-11T21:56:34.708Z,7.32
2022-09-11T21:59:03.499Z,7.43
2022-09-11T22:01:33.156Z,8.25
2022-09-11T22:04:06.507Z,8.95
2022-09-11T22:06:35.036Z,8.40
2022-09-11T22:09:03.379Z,9.18
2022-09-11T22:11:31.829Z,8.45
2022-09-11T22:14:00.134Z,8.27
2022-09-11T22:16:30.415Z,9.15
2022-09-11T22:18:58.803Z,8.82
2022-09-11T22:21:28.559Z,6.93
2022-09-11T22:23:57.492Z,8.93
2022-09-11T22:26:25.948Z,10.00
2022-09-11T22:28:54.250Z,9.73
2022-09-11T22:31:25.027Z,9.32
2022-09-11T22:33:55.125Z,11.20
2022-09-11T22:36:25.797Z,11.75
2022-09-11T22:38:55.635Z,9.48
2022-09-11T22:41:24.332Z,9.15
2022-09-11T22:43:54.835Z,9.60
2022-09-11T22:46:24.018Z,8.10
2022-09-11T22:48:52.311Z,8.05
2022-09-11T22:51:20.587Z,8.40
2022-09-11T22:53:48.960Z,7.93
2022-09-11T22:56:18.827Z,8.10
2022-09-11T22:58:47.528Z,10.93
2022-09-11T23:01:21.853Z,8.40
2022-09-11T23:03:51.147Z,8.57
2022-09-11T23:06:37.890Z,8.68
2022-09-11T23:09:06.580Z,11.10
2022-09-11T23:11:36.322Z,9.85
2022-09-11T23:14:04.764Z,9.13
2022-09-11T23:16:33.412Z,8.10
2022-09-11T23:19:03.267Z,7.72
2022-09-11T23:21:35.650Z,9.50
2022-09-11T23:24:07.211Z,8.95
2022-09-11T23:26:37.442Z,7.65
2022-09-11T23:29:05.768Z,10.18
2022-09-11T23:31:35.518Z,8.93
2022-09-11T23:34:06.146Z,9.02
2022-09-11T23:36:36.408Z,9.65
2022-09-11T23:39:05.159Z,8.07
2022-09-11T23:41:33.589Z,8.18
2022-09-11T23:44:03.715Z,9.70
2022-09-11T23:46:32.392Z,10.05
2022-09-11T23:49:00.719Z,10.40
2022-09-11T23:51:29.007Z,10.00
2022-09-11T23:53:58.297Z,11.43
2022-09-11T23:56:27.160Z,10.25
2022-09-11T23:58:55.628Z,11.45
